Time;durP1;ratioP1;P1;durP2;ratioP2;P2;SDS_P1;SDS_P2;PMS_P1;PMS_P2;Temp;Humidity;BMP_temperature;BMP_pressure;BME280_temperature;BME280_humidity;BME280_pressure;Samples;Min_cycle;Max_cycle;Signal;HPM_P1;HPM_P2
2022/06/30 00:00:48;;;;;;;9.80;6.45;;;18.40;99.90;;;;;;5076781;28;20024;-77
2022/06/30 00:03:14;;;;;;;9.63;6.53;;;18.40;99.90;;;;;;5076228;28;20511;-76
2022/06/30 00:05:40;;;;;;;9.20;6.20;;;18.50;99.90;;;;;;5095389;28;20024;-76
2022/06/30 00:08:06;;;;;;;12.25;7.75;;;18.30;99.90;;;;;;5094563;28;20088;-76
2022/06/30 00:10:31;;;;;;;9.13;6.43;;;18.30;99.90;;;;;;5095360;28;20073;-77
2022/06/30 00:12:57;;;;;;;11.75;7.60;;;18.30;99.90;;;;;;5076584;28;20020;-77
2022/06/30 00:15:23;;;;;;;9.52;7.20;;;18.40;99.90;;;;;;5094595;28;20027;-77
2022/06/30 00:17:48;;;;;;;11.10;7.75;;;18.30;99.90;;;;;;5094793;28;20024;-77
2022/06/30 00:20:19;;;;;;;13.32;7.55;;;18.30;99.90;;;;;;5076782;28;20022;-77
2022/06/30 00:22:45;;;;;;;14.20;8.35;;;18.30;99.90;;;;;;5094989;28;20016;-77
2022/06/30 00:25:13;;;;;;;11.10;7.43;;;18.20;99.90;;;;;;5094467;28;20024;-77
2022/06/30 00:27:40;;;;;;;10.95;7.65;;;18.20;99.90;;;;;;5094569;28;20023;-77
2022/06/30 00:30:07;;;;;;;10.65;7.35;;;18.20;99.90;;;;;;5094939;28;20083;-77
2022/06/30 00:32:32;;;;;;;12.57;8.00;;;18.20;99.90;;;;;;5076303;28;20049;-77
2022/06/30 00:34:59;;;;;;;12.52;8.30;;;18.20;99.90;;;;;;5095214;28;20028;-77
2022/06/30 00:37:25;;;;;;;14.25;8.73;;;18.20;99.90;;;;;;5076413;28;20484;-77
2022/06/30 00:39:52;;;;;;;12.63;8.23;;;18.10;99.90;;;;;;5076656;28;20031;-77
2022/06/30 00:42:18;;;;;;;13.07;7.65;;;18.10;99.90;;;;;;5076489;28;20032;-77
2022/06/30 00:44:43;;;;;;;10.95;7.43;;;18.10;99.90;;;;;;5094508;28;20035;-77
2022/06/30 00:47:10;;;;;;;11.57;7.68;;;18.10;99.90;;;;;;5094290;28;20107;-77
2022/06/30 00:49:37;;;;;;;12.63;7.60;;;17.90;99.90;;;;;;5094918;28;20031;-77
2022/06/30 00:52:06;;;;;;;15.50;9.10;;;18.00;99.90;;;;;;5076641;28;20019;-77
2022/06/30 00:54:34;;;;;;;13.23;7.30;;;18.00;99.90;;;;;;5095463;28;20016;-78
2022/06/30 00:57:00;;;;;;;13.18;7.95;;;18.00;99.90;;;;;;5094614;28;20040;-78
2022/06/30 00:59:27;;;;;;;11.60;6.60;;;18.00;99.90;;;;;;5094964;28;20032;-78
2022/06/30 01:01:54;;;;;;;10.68;7.35;;;17.90;99.90;;;;;;5095210;28;20020;-78
2022/06/30 01:04:20;;;;;;;11.52;7.10;;;17.90;99.90;;;;;;5094890;28;20023;-78
2022/06/30 01:06:47;;;;;;;10.48;7.75;;;17.90;99.90;;;;;;5077108;28;20024;-78
2022/06/30 01:12:41;;;;;;;10.57;6.72;;;17.80;99.90;;;;;;5094416;28;20028;-78
2022/06/30 01:14:50;;;;;;;10.13;7.25;;;17.80;99.90;;;;;;5095201;28;20043;-77
2022/06/30 01:17:17;;;;;;;13.93;7.57;;;17.80;99.90;;;;;;5094985;28;20016;-78
2022/06/30 01:19:55;;;;;;;10.02;6.90;;;17.70;99.90;;;;;;5076403;28;20024;-77
2022/06/30 01:22:22;;;;;;;10.98;6.93;;;17.70;99.90;;;;;;5094576;28;20030;-77
2022/06/30 01:24:48;;;;;;;15.45;7.68;;;17.70;99.90;;;;;;5075930;28;20036;-77
2022/06/30 01:27:15;;;;;;;14.65;6.38;;;17.70;99.90;;;;;;5075935;28;20031;-77
2022/06/30 01:29:41;;;;;;;10.15;7.20;;;17.70;99.90;;;;;;5094400;28;20473;-77
2022/06/30 01:32:08;;;;;;;9.00;6.45;;;17.70;99.90;;;;;;5094266;28;20024;-77
2022/06/30 01:34:33;;;;;;;9.95;6.85;;;17.70;99.90;;;;;;5093901;28;20076;-76
2022/06/30 01:36:59;;;;;;;10.25;6.80;;;17.70;99.90;;;;;;5094108;28;20012;-77
2022/06/30 01:39:26;;;;;;;9.57;6.53;;;17.60;99.90;;;;;;5094140;28;20101;-77
2022/06/30 01:41:52;;;;;;;8.23;6.50;;;17.60;99.90;;;;;;5076057;28;20035;-76
2022/06/30 01:44:17;;;;;;;10.25;5.90;;;17.60;99.90;;;;;;5094586;28;20529;-77
2022/06/30 01:46:48;;;;;;;7.78;5.57;;;17.60;99.90;;;;;;5093541;28;20016;-76
2022/06/30 01:49:14;;;;;;;8.40;6.47;;;17.50;99.90;;;;;;5075068;28;20020;-77
2022/06/30 01:51:42;;;;;;;10.77;6.07;;;17.60;99.90;;;;;;5075826;28;20016;-77
2022/06/30 01:54:08;;;;;;;9.52;6.25;;;17.50;99.90;;;;;;5075251;28;20031;-76
2022/06/30 01:56:37;;;;;;;10.95;6.50;;;17.50;99.90;;;;;;5093418;28;20394;-77
2022/06/30 01:59:04;;;;;;;11.32;6.85;;;17.50;99.90;;;;;;5093523;28;20104;-77
2022/06/30 02:01:33;;;;;;;11.38;6.25;;;17.40;99.90;;;;;;5075279;28;20190;-77
2022/06/30 02:04:46;;;;;;;9.10;6.22;;;17.50;99.90;;;;;;5093484;28;20024;-77
2022/06/30 02:06:46;;;;;;;9.48;6.10;;;17.50;99.90;;;;;;5093265;28;20397;-77
2022/06/30 02:09:12;;;;;;;10.30;5.97;;;17.50;99.90;;;;;;5093506;28;20051;-77
2022/06/30 02:11:39;;;;;;;8.85;6.45;;;17.60;99.90;;;;;;5093463;28;20024;-77
2022/06/30 02:14:06;;;;;;;9.88;6.10;;;17.70;99.90;;;;;;5093519;28;20043;-77
2022/06/30 02:16:32;;;;;;;9.52;5.90;;;17.80;99.90;;;;;;5093374;28;20381;-77
2022/06/30 02:18:58;;;;;;;9.32;6.85;;;17.80;99.90;;;;;;5074886;28;20392;-77
2022/06/30 02:21:23;;;;;;;10.18;5.70;;;17.90;99.90;;;;;;5075800;28;20058;-77
2022/06/30 02:23:51;;;;;;;9.57;5.75;;;17.90;99.90;;;;;;5096751;28;20023;-77
2022/06/30 02:26:18;;;;;;;9.20;6.13;;;18.00;99.90;;;;;;5097104;28;20024;-76
2022/06/30 02:28:44;;;;;;;10.05;5.97;;;17.90;99.90;;;;;;5096591;28;20028;-76
2022/06/30 02:31:12;;;;;;;9.10;5.93;;;18.00;99.90;;;;;;5078285;28;20114;-77
2022/06/30 02:33:41;;;;;;;;;;;18.00;99.90;;;;;;5097203;28;20421;-76
2022/06/30 02:36:07;;;;;;;7.78;4.93;;;17.90;99.90;;;;;;5078443;28;20382;-76
2022/06/30 02:38:33;;;;;;;7.78;5.13;;;18.00;99.90;;;;;;5096240;28;20051;-76
2022/06/30 02:40:59;;;;;;;7.47;5.40;;;18.00;99.90;;;;;;5096969;28;20488;-77
2022/06/30 02:43:26;;;;;;;8.73;5.60;;;17.90;99.90;;;;;;5078780;28;20423;-77
2022/06/30 02:45:52;;;;;;;9.23;5.80;;;18.00;99.90;;;;;;5096877;28;20032;-77
2022/06/30 02:48:18;;;;;;;8.60;5.32;;;17.90;99.90;;;;;;5077898;28;20073;-76
2022/06/30 02:50:45;;;;;;;7.80;4.88;;;17.90;99.90;;;;;;5077518;28;20028;-76
2022/06/30 02:53:11;;;;;;;7.97;5.53;;;17.90;99.90;;;;;;5096549;28;20303;-76
2022/06/30 02:55:37;;;;;;;7.18;4.97;;;17.80;99.90;;;;;;5096179;28;20501;-77
2022/06/30 02:58:03;;;;;;;5.68;4.40;;;17.80;99.90;;;;;;5077656;28;20008;-76
2022/06/30 03:00:29;;;;;;;9.25;5.50;;;17.80;99.90;;;;;;5096482;28;20024;-77
2022/06/30 03:02:57;;;;;;;11.15;4.80;;;17.80;99.90;;;;;;5096040;28;20025;-77
2022/06/30 03:05:24;;;;;;;6.38;4.65;;;17.70;99.90;;;;;;5077786;28;20027;-77
2022/06/30 03:07:50;;;;;;;8.77;5.10;;;17.70;99.90;;;;;;5077687;28;20024;-77
2022/06/30 03:10:16;;;;;;;7.65;4.82;;;17.60;99.90;;;;;;5077470;28;20345;-77
2022/06/30 03:12:42;;;;;;;7.82;6.03;;;17.70;99.90;;;;;;5095526;28;20027;-76
2022/06/30 03:15:09;;;;;;;9.75;5.65;;;17.80;99.90;;;;;;5096062;28;20087;-77
2022/06/30 03:17:37;;;;;;;9.30;5.90;;;17.80;99.90;;;;;;5095340;28;20080;-77
2022/06/30 03:20:03;;;;;;;10.30;5.65;;;17.80;99.90;;;;;;5095841;28;20496;-77
2022/06/30 03:22:29;;;;;;;10.57;6.22;;;17.80;99.90;;;;;;5095702;28;20043;-77
2022/06/30 03:24:54;;;;;;;8.98;6.20;;;17.80;99.90;;;;;;5096745;28;20046;-77
2022/06/30 03:27:20;;;;;;;15.82;7.63;;;17.70;99.90;;;;;;5077247;28;20438;-77
2022/06/30 03:29:46;;;;;;;9.48;6.70;;;17.80;99.90;;;;;;5077430;28;20100;-77
2022/06/30 03:32:11;;;;;;;12.80;7.00;;;17.80;99.90;;;;;;5095751;28;20384;-75
2022/06/30 03:34:38;;;;;;;9.35;6.88;;;17.70;99.90;;;;;;5077582;28;20477;-76
2022/06/30 03:37:04;;;;;;;9.30;4.95;;;17.70;99.90;;;;;;5077249;28;20024;-75
2022/06/30 03:39:29;;;;;;;10.07;6.07;;;17.60;99.90;;;;;;5077310;28;20051;-76
2022/06/30 03:41:55;;;;;;;12.98;7.65;;;17.60;99.90;;;;;;5095800;28;20073;-75
2022/06/30 03:44:21;;;;;;;9.23;6.30;;;17.60;99.90;;;;;;5095345;28;20499;-75
2022/06/30 03:46:46;;;;;;;15.23;7.95;;;17.50;99.90;;;;;;5077985;28;20020;-75
2022/06/30 03:49:12;;;;;;;13.88;7.63;;;17.60;99.90;;;;;;5095133;28;20059;-75
2022/06/30 03:51:38;;;;;;;10.48;6.72;;;17.60;99.90;;;;;;5077149;28;20020;-75
2022/06/30 03:54:03;;;;;;;11.32;6.25;;;17.60;99.90;;;;;;5095049;28;20073;-75
2022/06/30 03:56:31;;;;;;;10.18;6.75;;;17.60;99.90;;;;;;5076780;28;20029;-75
2022/06/30 03:58:56;;;;;;;8.90;6.07;;;17.50;99.90;;;;;;5094976;28;20096;-75
2022/06/30 04:01:22;;;;;;;10.32;6.40;;;17.50;99.90;;;;;;5095481;28;20382;-75
2022/06/30 04:03:47;;;;;;;11.02;6.80;;;17.50;99.90;;;;;;5076917;28;20024;-75
2022/06/30 04:06:13;;;;;;;9.07;6.28;;;17.50;99.90;;;;;;5094822;28;20100;-75
2022/06/30 04:08:39;;;;;;;9.57;7.18;;;17.60;99.90;;;;;;5094701;28;20020;-75
2022/06/30 04:11:04;;;;;;;10.02;6.93;;;17.60;99.90;;;;;;5094717;28;20053;-75
2022/06/30 04:13:30;;;;;;;10.85;7.00;;;17.60;99.90;;;;;;5095197;28;20019;-75
2022/06/30 04:15:56;;;;;;;9.02;5.80;;;17.60;99.90;;;;;;5076546;28;20020;-74
2022/06/30 04:18:21;;;;;;;9.85;6.28;;;17.60;99.90;;;;;;5076338;28;20590;-75
2022/06/30 04:20:47;;;;;;;13.63;7.03;;;17.60;99.90;;;;;;5094679;28;20031;-75
2022/06/30 04:23:13;;;;;;;13.02;7.60;;;17.60;99.90;;;;;;5094927;28;20016;-75
2022/06/30 04:25:39;;;;;;;11.95;6.55;;;17.70;99.90;;;;;;5094938;28;20498;-75
2022/06/30 04:28:05;;;;;;;12.68;8.25;;;17.70;99.90;;;;;;5094654;28;20032;-76
2022/06/30 04:33:15;;;;;;;11.10;6.35;;;17.90;99.90;;;;;;5094456;28;20027;-76
2022/06/30 04:35:41;;;;;;;11.57;7.50;;;17.90;99.90;;;;;;5094364;28;20098;-76
2022/06/30 04:38:07;;;;;;;10.45;7.20;;;18.00;99.90;;;;;;5094236;28;20042;-75
2022/06/30 04:43:17;;;;;;;15.02;7.40;;;18.10;99.90;;;;;;5095295;28;20424;-75
2022/06/30 04:45:43;;;;;;;12.98;8.20;;;18.20;99.90;;;;;;5076033;28;20024;-76
2022/06/30 04:48:08;;;;;;;10.60;7.80;;;18.30;99.90;;;;;;5076321;28;20020;-76
2022/06/30 04:50:34;;;;;;;12.18;7.60;;;18.30;99.90;;;;;;5094947;28;20385;-76
2022/06/30 04:53:00;;;;;;;10.90;7.18;;;18.40;99.90;;;;;;5076517;28;20093;-76
2022/06/30 04:55:25;;;;;;;13.50;8.15;;;18.50;99.90;;;;;;5094486;28;20077;-77
2022/06/30 04:57:51;;;;;;;16.05;7.18;;;18.60;99.90;;;;;;5095104;28;20485;-76
2022/06/30 05:00:16;;;;;;;13.60;8.10;;;18.70;99.90;;;;;;5094916;28;20035;-77
2022/06/30 05:02:42;;;;;;;12.60;8.30;;;18.80;99.90;;;;;;5094792;28;20039;-76
2022/06/30 05:05:09;;;;;;;13.52;7.85;;;18.90;99.90;;;;;;5094716;28;20033;-76
2022/06/30 05:07:35;;;;;;;13.73;8.75;;;19.00;99.90;;;;;;5076296;28;20028;-76
2022/06/30 05:10:01;;;;;;;15.00;9.48;;;19.10;99.90;;;;;;5094025;28;20024;-77
2022/06/30 05:12:26;;;;;;;17.65;8.63;;;19.20;99.90;;;;;;5094085;28;20107;-77
2022/06/30 05:14:52;;;;;;;13.63;8.88;;;19.30;99.90;;;;;;5094276;28;20028;-77
2022/06/30 05:17:17;;;;;;;15.35;8.48;;;19.40;99.90;;;;;;5076320;28;20026;-77
2022/06/30 05:19:43;;;;;;;17.17;9.43;;;19.50;99.90;;;;;;5077439;28;20019;-77
2022/06/30 05:22:09;;;;;;;13.48;9.00;;;19.60;99.90;;;;;;5096161;28;20465;-77
2022/06/30 05:27:19;;;;;;;13.77;9.73;;;19.80;99.90;;;;;;5097981;28;20030;-78
2022/06/30 05:29:45;;;;;;;16.20;8.95;;;20.00;99.90;;;;;;5097572;28;20024;-78
2022/06/30 05:32:10;;;;;;;10.13;6.50;;;20.00;99.90;;;;;;5097103;28;20023;-78
2022/06/30 05:34:36;;;;;;;17.38;9.68;;;20.20;99.90;;;;;;5097166;28;20047;-79
2022/06/30 05:37:03;;;;;;;13.43;8.43;;;20.40;99.90;;;;;;5096454;28;20016;-77
2022/06/30 05:39:29;;;;;;;15.18;8.45;;;20.40;99.90;;;;;;5076090;28;20028;-77
2022/06/30 05:41:55;;;;;;;14.02;9.27;;;20.50;99.90;;;;;;5076233;28;20032;-77
2022/06/30 05:44:23;;;;;;;13.60;8.70;;;20.60;99.90;;;;;;5095465;28;20027;-77
2022/06/30 05:46:49;;;;;;;;;;;20.80;99.90;;;;;;5095041;28;20099;-78
2022/06/30 05:49:14;;;;;;;19.98;9.90;;;20.80;99.90;;;;;;5076326;28;19918;-78
2022/06/30 05:51:40;;;;;;;14.73;8.77;;;20.90;99.90;;;;;;5094580;28;20016;-77
2022/06/30 05:54:05;;;;;;;15.05;10.02;;;21.10;99.90;;;;;;5094611;28;20103;-77
2022/06/30 05:56:31;;;;;;;16.00;9.70;;;21.10;99.90;;;;;;5096946;28;20122;-78
2022/06/30 05:58:57;;;;;;;14.70;9.50;;;21.10;99.90;;;;;;5101202;28;20038;-78
2022/06/30 06:01:22;;;;;;;13.77;9.98;;;21.00;99.90;;;;;;5082725;28;20024;-78
2022/06/30 06:03:48;;;;;;;14.23;9.23;;;20.90;99.90;;;;;;5100140;28;20020;-77
2022/06/30 06:06:13;;;;;;;16.33;9.82;;;20.80;99.90;;;;;;5099199;28;20394;-78
2022/06/30 06:08:40;;;;;;;16.50;10.20;;;20.70;99.90;;;;;;5081943;28;20024;-78
2022/06/30 06:11:07;;;;;;;17.83;9.05;;;20.80;99.90;;;;;;5081521;28;20027;-78
2022/06/30 06:13:32;;;;;;;18.30;10.57;;;20.80;99.90;;;;;;5080758;28;20115;-77
2022/06/30 06:15:58;;;;;;;18.20;10.73;;;20.80;99.90;;;;;;5080546;28;20047;-77
2022/06/30 06:18:23;;;;;;;14.73;10.07;;;20.80;99.90;;;;;;5099178;28;20027;-78
2022/06/30 06:20:49;;;;;;;14.52;8.50;;;20.80;99.90;;;;;;5099442;28;20020;-78
2022/06/30 06:23:15;;;;;;;15.55;9.05;;;20.90;99.90;;;;;;5100323;28;20440;-78
2022/06/30 06:25:41;;;;;;;15.95;8.73;;;20.90;99.90;;;;;;5099353;28;20028;-78
2022/06/30 06:30:50;;;;;;;10.32;6.55;;;20.70;99.90;;;;;;5098640;28;20081;-76
2022/06/30 06:33:17;;;;;;;9.85;5.90;;;20.70;99.90;;;;;;5097807;28;20024;-77
2022/06/30 06:35:44;;;;;;;7.47;5.13;;;20.70;99.90;;;;;;5079770;28;20016;-77
2022/06/30 06:38:09;;;;;;;19.02;6.25;;;20.80;99.90;;;;;;5097347;28;20049;-77
2022/06/30 06:40:35;;;;;;;7.45;3.65;;;20.80;99.90;;;;;;5097893;28;20032;-77
2022/06/30 06:43:01;;;;;;;11.05;3.50;;;20.90;99.90;;;;;;5080265;28;20024;-77
2022/06/30 06:45:29;;;;;;;8.45;3.60;;;21.00;99.90;;;;;;5078484;28;20024;-77
2022/06/30 06:47:56;;;;;;;6.47;2.53;;;21.10;99.90;;;;;;5096713;28;20528;-78
2022/06/30 06:50:22;;;;;;;10.48;2.90;;;21.20;99.90;;;;;;5079566;28;20031;-77
2022/06/30 06:52:48;;;;;;;8.52;2.20;;;21.30;99.90;;;;;;5098273;28;20028;-77
2022/06/30 06:55:16;;;;;;;4.60;1.50;;;21.40;99.90;;;;;;5125560;22;20545;-78
2022/06/30 06:57:43;;;;;;;10.23;1.48;;;21.40;99.90;;;;;;5057349;28;20100;-78
2022/06/30 07:00:12;;;;;;;3.63;1.58;;;21.60;99.90;;;;;;5040462;28;20136;-79
2022/06/30 07:02:39;;;;;;;3.08;1.15;;;21.70;99.90;;;;;;5043568;28;20112;-79
2022/06/30 07:05:06;;;;;;;3.22;1.00;;;21.80;99.90;;;;;;5042632;28;20125;-78
2022/06/30 07:07:32;;;;;;;1.00;0.33;;;21.90;99.90;;;;;;5056902;28;20044;-75
2022/06/30 07:09:58;;;;;;;3.83;1.00;;;21.90;99.90;;;;;;5058701;28;20029;-77
2022/06/30 07:12:27;;;;;;;7.32;1.85;;;22.10;99.90;;;;;;5057183;28;20028;-77
2022/06/30 07:14:52;;;;;;;6.90;1.98;;;22.20;99.90;;;;;;5039023;28;20063;-78
2022/06/30 07:17:19;;;;;;;4.03;1.08;;;22.20;99.90;;;;;;5056661;28;20442;-76
2022/06/30 07:19:45;;;;;;;3.45;0.75;;;22.20;99.90;;;;;;5057175;28;20025;-76
2022/06/30 07:22:14;;;;;;;3.35;1.50;;;22.20;99.90;;;;;;5056741;28;20032;-77
2022/06/30 07:24:39;;;;;;;3.97;0.75;;;22.20;99.90;;;;;;5057634;28;20032;-77
2022/06/30 07:27:05;;;;;;;5.47;1.00;;;22.10;99.90;;;;;;5056942;28;20467;-76
2022/06/30 07:29:31;;;;;;;3.63;1.02;;;22.10;99.90;;;;;;5056186;28;20032;-76
2022/06/30 07:31:57;;;;;;;5.57;1.05;;;22.00;99.90;;;;;;5056953;28;20013;-78
2022/06/30 07:34:23;;;;;;;5.82;0.75;;;21.90;99.90;;;;;;5059661;28;20025;-78
2022/06/30 07:36:49;;;;;;;2.55;0.95;;;21.90;99.90;;;;;;5040171;28;20021;-78
2022/06/30 07:39:14;;;;;;;2.33;0.60;;;22.10;99.90;;;;;;5037909;28;20025;-75
2022/06/30 07:41:40;;;;;;;2.70;0.50;;;22.30;99.90;;;;;;5055798;28;20048;-77
2022/06/30 07:44:06;;;;;;;8.38;0.98;;;22.30;99.90;;;;;;5037817;28;20028;-77
2022/06/30 07:46:32;;;;;;;3.03;0.32;;;22.40;99.90;;;;;;5038777;28;20131;-77
2022/06/30 07:48:58;;;;;;;3.75;1.00;;;22.60;99.90;;;;;;5056991;28;20025;-77
2022/06/30 07:51:24;;;;;;;1.17;0.30;;;22.60;99.90;;;;;;5057047;28;20029;-78
2022/06/30 07:53:49;;;;;;;6.30;0.60;;;22.70;99.90;;;;;;5056530;28;20024;-76
2022/06/30 07:56:17;;;;;;;1.75;0.10;;;22.70;99.90;;;;;;5038449;28;20036;-78
2022/06/30 07:58:42;;;;;;;2.83;0.30;;;22.70;99.90;;;;;;5056460;28;20104;-75
2022/06/30 08:01:08;;;;;;;2.05;0.30;;;22.90;99.90;;;;;;5057706;28;20060;-77
2022/06/30 08:03:34;;;;;;;2.38;0.25;;;22.90;99.90;;;;;;5058029;28;20196;-77
2022/06/30 08:05:59;;;;;;;2.25;0.20;;;23.00;99.90;;;;;;5056687;28;20043;-77
2022/06/30 08:08:25;;;;;;;3.85;0.32;;;23.10;99.90;;;;;;5038728;28;20037;-77
2022/06/30 08:10:51;;;;;;;1.98;0.20;;;23.20;99.90;;;;;;5056096;28;20109;-77
2022/06/30 08:13:16;;;;;;;3.38;0.30;;;23.30;99.90;;;;;;5056471;28;20021;-75
2022/06/30 08:15:42;;;;;;;1.55;0.10;;;23.30;99.90;;;;;;5036390;28;20402;-74
2022/06/30 08:18:08;;;;;;;3.15;0.30;;;23.40;99.90;;;;;;5053896;28;20505;-74
2022/06/30 08:20:35;;;;;;;3.08;0.40;;;23.50;99.90;;;;;;5035799;28;20170;-74
2022/06/30 08:23:01;;;;;;;4.25;0.10;;;23.60;99.90;;;;;;5036514;28;20013;-74
2022/06/30 08:25:27;;;;;;;3.60;0.20;;;23.50;99.90;;;;;;5054951;28;20100;-74
2022/06/30 08:27:53;;;;;;;5.05;0.20;;;23.50;99.90;;;;;;5056281;28;20021;-76
2022/06/30 08:30:19;;;;;;;3.50;0.10;;;23.60;99.90;;;;;;5037160;28;20048;-76
2022/06/30 08:32:45;;;;;;;1.75;0.10;;;23.50;99.90;;;;;;5037629;28;20496;-77
2022/06/30 08:35:11;;;;;;;7.85;1.13;;;23.50;99.90;;;;;;5055436;28;20017;-77
2022/06/30 08:37:37;;;;;;;3.72;0.22;;;23.40;99.90;;;;;;5054909;28;20029;-78
2022/06/30 08:42:47;;;;;;;2.00;0.63;;;23.50;99.90;;;;;;5055322;28;20144;-76
2022/06/30 08:45:20;;;;;;;2.83;0.40;;;23.60;99.90;;;;;;5054231;28;20104;-77
2022/06/30 08:47:48;;;;;;;1.30;0.40;;;23.70;99.90;;;;;;5053824;28;20021;-77
2022/06/30 08:50:17;;;;;;;1.73;0.10;;;23.80;99.90;;;;;;5036302;28;20079;-77
2022/06/30 08:52:54;;;;;;;0.88;0.20;;;23.90;99.90;;;;;;5054506;28;20450;-76
2022/06/30 08:55:24;;;;;;;4.85;0.30;;;23.90;99.90;;;;;;5053901;28;20102;-76
2022/06/30 08:57:54;;;;;;;2.67;0.22;;;23.80;99.90;;;;;;5054125;28;20040;-76
2022/06/30 09:00:20;;;;;;;2.33;0.00;;;23.90;99.90;;;;;;5045312;28;20171;-76
2022/06/30 09:02:46;;;;;;;3.17;0.10;;;23.90;99.90;;;;;;5042237;28;20029;-76
2022/06/30 09:05:13;;;;;;;3.35;0.50;;;23.90;99.90;;;;;;5052793;28;20087;-76
2022/06/30 09:07:38;;;;;;;3.20;0.30;;;24.10;99.90;;;;;;5054637;28;20469;-76
2022/06/30 09:10:07;;;;;;;1.83;0.17;;;24.10;99.90;;;;;;5053942;28;20108;-76
2022/06/30 09:12:33;;;;;;;3.83;0.45;;;24.20;99.90;;;;;;5053609;28;20094;-76
2022/06/30 09:15:00;;;;;;;1.48;0.00;;;24.10;99.90;;;;;;5053924;28;20470;-76
2022/06/30 09:17:28;;;;;;;4.32;0.55;;;24.20;99.90;;;;;;5053729;28;20021;-76
2022/06/30 09:20:05;;;;;;;1.27;0.10;;;24.30;99.90;;;;;;5053498;28;20497;-77
2022/06/30 09:22:41;;;;;;;3.20;0.55;;;24.40;99.90;;;;;;5036049;28;20275;-76
2022/06/30 09:25:15;;;;;;;2.50;0.20;;;24.50;99.90;;;;;;5053875;28;20063;-76
2022/06/30 09:27:43;;;;;;;2.63;0.50;;;24.60;99.90;;;;;;5035877;28;20124;-76
2022/06/30 09:30:10;;;;;;;1.05;0.00;;;24.70;99.90;;;;;;5054173;28;20398;-76
2022/06/30 09:32:49;;;;;;;1.90;0.05;;;24.80;99.90;;;;;;5057778;28;20017;-77
2022/06/30 09:35:16;;;;;;;4.80;0.50;;;24.80;99.90;;;;;;5057734;28;20454;-77
2022/06/30 09:37:42;;;;;;;2.83;0.10;;;24.80;99.90;;;;;;5039917;28;20100;-77
2022/06/30 09:40:09;;;;;;;1.25;0.30;;;24.70;99.90;;;;;;5059451;28;20056;-80
2022/06/30 09:42:43;;;;;;;2.45;0.25;;;24.80;99.90;;;;;;5059995;28;20039;-79
2022/06/30 09:45:12;;;;;;;6.65;0.68;;;24.70;99.90;;;;;;5040750;28;20055;-79
2022/06/30 09:47:52;;;;;;;2.65;0.35;;;24.80;99.90;;;;;;5024309;28;20029;-79
2022/06/30 09:50:19;;;;;;;1.30;0.00;;;24.80;99.90;;;;;;5023418;28;20125;-79
2022/06/30 09:52:45;;;;;;;2.35;0.43;;;25.00;99.90;;;;;;5023316;28;20025;-79
2022/06/30 09:55:12;;;;;;;2.25;0.00;;;25.20;99.90;;;;;;5040790;28;20032;-78
2022/06/30 09:57:41;;;;;;;0.25;0.03;;;25.20;98.80;;;;;;5022203;28;20026;-79
2022/06/30 10:00:18;;;;;;;1.45;0.10;;;25.30;99.90;;;;;;5040762;28;20025;-78
2022/06/30 10:02:49;;;;;;;2.35;0.20;;;25.50;99.90;;;;;;5039585;28;20483;-79
2022/06/30 10:05:19;;;;;;;4.43;0.20;;;25.70;99.90;;;;;;5021908;28;20501;-78
2022/06/30 10:07:46;;;;;;;1.42;0.25;;;25.80;99.20;;;;;;5021649;28;20098;-78
2022/06/30 10:10:17;;;;;;;2.28;0.00;;;26.00;99.40;;;;;;5039127;28;20255;-78
2022/06/30 10:12:45;;;;;;;1.08;0.13;;;26.10;97.40;;;;;;5022118;28;20018;-78
2022/06/30 10:15:13;;;;;;;2.45;0.00;;;26.20;98.20;;;;;;5021909;28;20017;-79
2022/06/30 10:17:44;;;;;;;0.85;0.00;;;26.20;98.30;;;;;;5022327;28;20117;-78
2022/06/30 10:20:10;;;;;;;2.95;0.10;;;26.30;93.70;;;;;;5040731;28;20029;-78
2022/06/30 10:22:39;;;;;;;3.50;0.13;;;26.20;96.00;;;;;;5040001;28;20112;-78
2022/06/30 10:25:05;;;;;;;3.58;0.00;;;26.20;95.00;;;;;;5039774;28;20033;-79
2022/06/30 10:27:31;;;;;;;2.28;0.00;;;26.20;96.10;;;;;;5040119;28;20386;-78
2022/06/30 10:30:09;;;;;;;3.88;0.00;;;26.10;95.20;;;;;;5021985;28;20036;-79
2022/06/30 10:32:43;;;;;;;4.05;0.00;;;26.00;95.40;;;;;;5039769;28;20035;-79
2022/06/30 10:35:21;;;;;;;2.28;0.10;;;26.00;97.10;;;;;;5020806;28;20021;-80
2022/06/30 10:38:22;;;;;;;1.08;0.00;;;26.20;98.50;;;;;;5039000;28;20022;-79
2022/06/30 10:41:10;;;;;;;3.92;0.40;;;26.40;96.50;;;;;;5047963;28;20025;-79
2022/06/30 10:44:08;;;;;;;1.00;0.00;;;26.70;96.70;;;;;;5073546;28;20108;-79
2022/06/30 10:46:46;;;;;;;1.25;0.00;;;26.80;92.10;;;;;;5057531;28;20043;-79
2022/06/30 10:49:13;;;;;;;0.82;0.00;;;26.80;92.60;;;;;;5059164;28;20035;-79
2022/06/30 10:51:39;;;;;;;1.53;0.00;;;26.70;93.40;;;;;;5056816;28;20044;-79
2022/06/30 10:54:06;;;;;;;2.45;0.47;;;26.70;92.80;;;;;;5036366;28;20013;-79
2022/06/30 10:56:51;;;;;;;2.40;0.00;;;26.80;94.20;;;;;;5050119;28;20025;-78
2022/06/30 10:59:27;;;;;;;3.10;0.00;;;27.10;93.70;;;;;;5037386;28;20052;-78
2022/06/30 11:02:10;;;;;;;3.95;0.20;;;27.20;90.60;;;;;;5052072;28;20029;-78
2022/06/30 11:04:45;;;;;;;1.35;0.00;;;26.90;91.20;;;;;;5040973;28;20032;-78
2022/06/30 11:07:12;;;;;;;4.43;0.65;;;26.90;89.60;;;;;;5040280;28;20025;-79
2022/06/30 11:09:43;;;;;;;3.88;0.00;;;26.90;91.50;;;;;;5043290;28;20397;-79
2022/06/30 11:12:09;;;;;;;1.15;0.10;;;27.10;91.10;;;;;;5055364;28;20422;-78
2022/06/30 11:14:40;;;;;;;0.75;0.00;;;27.50;93.10;;;;;;5053946;28;20021;-78
2022/06/30 11:17:17;;;;;;;1.90;0.55;;;27.30;89.50;;;;;;5031146;28;20500;-78
2022/06/30 11:19:42;;;;;;;1.02;0.17;;;27.40;87.50;;;;;;5031866;28;20127;-78
2022/06/30 11:22:12;;;;;;;1.27;0.03;;;27.60;91.10;;;;;;5025918;28;20033;-78
2022/06/30 11:24:40;;;;;;;0.90;0.00;;;27.80;91.10;;;;;;5043796;28;20036;-79
2022/06/30 11:27:23;;;;;;;0.73;0.00;;;28.00;87.00;;;;;;5029415;28;20025;-78
2022/06/30 11:29:55;;;;;;;1.05;0.00;;;28.10;90.30;;;;;;5044370;28;20025;-78
2022/06/30 11:32:22;;;;;;;3.22;0.28;;;28.50;87.90;;;;;;5047406;28;20025;-79
2022/06/30 11:34:48;;;;;;;1.40;0.00;;;28.60;87.30;;;;;;5047825;28;20056;-78
2022/06/30 11:37:21;;;;;;;1.33;0.00;;;28.40;85.80;;;;;;5047030;28;20061;-79
2022/06/30 11:39:47;;;;;;;0.30;0.00;;;28.50;86.70;;;;;;5050121;28;20076;-78
2022/06/30 11:42:12;;;;;;;1.15;0.00;;;28.70;83.40;;;;;;5054253;28;20075;-78
2022/06/30 11:44:40;;;;;;;1.02;0.00;;;28.80;83.40;;;;;;5045550;28;20030;-78
2022/06/30 11:47:07;;;;;;;1.20;0.00;;;28.70;81.50;;;;;;5044117;28;20029;-78
2022/06/30 11:49:40;;;;;;;0.85;0.00;;;28.50;81.80;;;;;;5049289;28;20087;-77
2022/06/30 11:52:24;;;;;;;1.15;0.10;;;28.30;81.30;;;;;;5027912;28;20033;-78
2022/06/30 11:54:58;;;;;;;1.23;0.20;;;28.00;82.00;;;;;;5027369;28;20431;-79
2022/06/30 11:57:25;;;;;;;2.08;0.00;;;27.90;79.00;;;;;;5046126;28;20106;-79
2022/06/30 11:59:54;;;;;;;0.82;0.00;;;27.60;81.00;;;;;;5043147;28;20048;-79
2022/06/30 12:02:20;;;;;;;1.92;0.00;;;27.30;83.90;;;;;;5048801;28;20036;-78
2022/06/30 12:04:51;;;;;;;3.00;0.00;;;27.40;88.20;;;;;;5029082;28;20032;-79
2022/06/30 12:07:18;;;;;;;3.22;0.08;;;27.70;86.70;;;;;;5028203;28;20032;-79
2022/06/30 12:09:44;;;;;;;1.90;0.00;;;28.00;84.20;;;;;;5046962;28;20489;-78
2022/06/30 12:12:13;;;;;;;0.70;0.00;;;28.20;84.80;;;;;;5047411;28;20058;-78
2022/06/30 12:14:40;;;;;;;1.90;0.00;;;28.10;81.70;;;;;;5061395;28;20013;-77
2022/06/30 12:17:07;;;;;;;0.40;0.00;;;28.00;85.40;;;;;;5056557;28;20100;-78
2022/06/30 12:19:34;;;;;;;0.10;0.00;;;27.60;82.50;;;;;;5042091;28;20132;-78
2022/06/30 12:22:02;;;;;;;2.40;0.00;;;27.50;85.40;;;;;;5028889;28;20024;-78
2022/06/30 12:24:27;;;;;;;1.08;0.00;;;27.30;83.70;;;;;;5045896;28;20033;-78
2022/06/30 12:26:55;;;;;;;1.70;0.28;;;27.10;84.20;;;;;;5031847;28;20025;-78
2022/06/30 12:29:23;;;;;;;1.95;0.22;;;27.00;85.70;;;;;;5043830;28;20335;-78
2022/06/30 12:32:03;;;;;;;0.77;0.00;;;27.00;87.50;;;;;;5034365;28;20017;-78
2022/06/30 12:34:30;;;;;;;0.38;0.00;;;27.00;87.00;;;;;;5043330;28;20026;-78
2022/06/30 12:37:00;;;;;;;1.67;0.10;;;27.00;84.70;;;;;;5030709;28;20021;-77
2022/06/30 12:39:26;;;;;;;1.08;0.17;;;26.90;80.20;;;;;;5043719;28;20029;-78
2022/06/30 12:42:01;;;;;;;4.60;0.00;;;27.00;85.00;;;;;;5050211;28;20025;-74
2022/06/30 12:44:35;;;;;;;4.47;0.30;;;27.10;84.70;;;;;;5047249;28;20462;-74
2022/06/30 12:47:04;;;;;;;0.55;0.20;;;27.30;88.10;;;;;;5036545;28;20037;-75
2022/06/30 12:49:29;;;;;;;1.58;0.00;;;27.30;85.70;;;;;;5026984;28;20067;-73
2022/06/30 12:51:56;;;;;;;0.40;0.00;;;27.10;80.90;;;;;;5027624;28;20013;-73
2022/06/30 12:54:24;;;;;;;0.10;0.00;;;26.70;85.90;;;;;;5038398;28;20049;-75
2022/06/30 12:56:52;;;;;;;0.13;0.10;;;26.50;84.10;;;;;;5050656;28;20037;-74
2022/06/30 12:59:20;;;;;;;;;;;26.30;86.50;;;;;;5043280;28;20041;-74
2022/06/30 13:01:52;;;;;;;1.88;0.00;;;26.10;86.20;;;;;;5039937;28;19915;-75